Strona główna
METAR-TAF:

METAR-TAF

Lotnisko :

Port lotniczy Rzym-Fiumicino

Rzym-Fiumicino, Włochy

Szerokość geograficzna: 41-48N, Długość geograficzna: 012-14E, wysokość: 2 m

Aktualna obserwacja pogody

Raport powstał 19 minut temu, godzina 03:50 UTC
Wiatr 4 kt od wschodnio-północny wschód
Temperatura 15°C
Wilgotność 94%
Ciśnienie 1019 hPa
Widzialność 10 km lub więcej
Brak chmur poniżej 1500 m i brak chmur cumulonimbus

METAR: LIRF 200350Z 06004KT CAVOK 15/14 Q1019 NOSIG

czas: 06:09 (04:09 UTC)

Prognoza

Raport powstał 5 godziny i 9 minut temu, godzina 23:00 UTC
Prognoza ważna od 20 godzina 00 UTC do 21 godzina 06 UTC
Wiatr 5 kt z kierunków zmiennych
Widzialność 10 km lub więcej
Brak chmur poniżej 1500 m i brak chmur cumulonimbus
Stopniowe zmiany
od 20 godzina 11 UTC do 20 godzina 13 UTC
Wiatr 10 kt od zachód
Stopniowe zmiany
od 20 godzina 17 UTC do 20 godzina 19 UTC
Wiatr 5 kt z kierunków zmiennych

TAF: LIRF 192300Z 2000/2106 VRB05KT CAVOK BECMG 2011/2013 28010KT BECMG 2017/2019 VRB05KT

Obserwacja i prognoza pogody dla ponad 4000 lotnisk (raport METAR i TAF).

Dostępne stacje oznaczono żółtymi i czerwonymi punktami na mapie.

Najedź kursorem aby zobaczyć nazwę stacji.

Kliknij aby zobaczyć obserwacje i prognozy pogody.

Aby zmienić mapę: kliknij na zielony przycisk z czarnym krzyżykiem, aby powiększyć; na zielony przycisk z myślnikiem, aby pomniejszyć; na zielone strzałki, aby przejść do map sąsiednich.


METAR-TAF: